createdAt,value
2024-04-24T00:02:11.943Z,4.00
2024-04-24T00:04:42.012Z,4.00
2024-04-24T00:07:12.185Z,4.00
2024-04-24T00:09:45.048Z,4.00
2024-04-24T00:12:15.138Z,4.00
2024-04-24T00:14:45.201Z,4.00
2024-04-24T00:17:15.766Z,4.00
2024-04-24T00:19:45.998Z,3.90
2024-04-24T00:22:16.144Z,3.90
2024-04-24T00:24:48.856Z,3.90
2024-04-24T00:27:18.931Z,3.80
2024-04-24T00:29:48.975Z,3.80
2024-04-24T00:32:19.161Z,3.80
2024-04-24T00:34:49.356Z,3.70
2024-04-24T00:37:19.505Z,3.60
2024-04-24T00:39:52.242Z,3.60
2024-04-24T00:42:23.072Z,3.50
2024-04-24T00:44:50.594Z,3.40
2024-04-24T00:47:22.913Z,3.40
2024-04-24T00:49:54.628Z,3.50
2024-04-24T00:52:24.804Z,3.40
2024-04-24T00:54:58.019Z,3.30
2024-04-24T00:57:28.912Z,3.30
2024-04-24T00:59:59.025Z,3.30
2024-04-24T01:02:26.874Z,3.30
2024-04-24T01:04:56.922Z,3.20
2024-04-24T01:07:27.238Z,3.10
2024-04-24T01:09:59.953Z,3.10
2024-04-24T01:12:30.022Z,3.20
2024-04-24T01:15:00.282Z,3.20
2024-04-24T01:17:31.242Z,3.20
2024-04-24T01:20:03.595Z,3.20
2024-04-24T01:22:56.727Z,3.20
2024-04-24T01:25:36.018Z,3.20
2024-04-24T01:28:09.147Z,3.20
2024-04-24T01:30:39.221Z,3.20
2024-04-24T01:33:09.328Z,3.20
2024-04-24T01:35:36.875Z,3.20
2024-04-24T01:38:07.267Z,3.20
2024-04-24T01:40:37.438Z,3.10
2024-04-24T01:43:10.264Z,3.00
2024-04-24T01:45:40.313Z,2.90
2024-04-24T01:48:11.047Z,2.90
2024-04-24T01:50:41.170Z,2.80
2024-04-24T01:53:11.289Z,2.80
2024-04-24T01:55:41.394Z,2.80
2024-04-24T01:58:14.148Z,2.70
2024-04-24T02:00:44.311Z,2.50
2024-04-24T02:03:14.515Z,2.50
2024-04-24T02:05:44.626Z,2.50
2024-04-24T02:08:14.757Z,2.40
2024-04-24T02:10:44.953Z,2.50
2024-04-24T02:13:17.736Z,2.50
2024-04-24T02:15:47.786Z,2.40
2024-04-24T02:18:17.978Z,2.30
2024-04-24T02:20:48.103Z,2.20
2024-04-24T02:23:22.075Z,2.20
2024-04-24T02:25:50.224Z,2.20
2024-04-24T02:28:23.076Z,2.20
2024-04-24T02:30:53.119Z,2.10
2024-04-24T02:33:23.254Z,2.10
2024-04-24T02:35:53.393Z,2.00
2024-04-24T02:38:23.580Z,2.00
2024-04-24T02:40:53.782Z,2.00
2024-04-24T02:43:26.540Z,2.00
2024-04-24T02:45:57.533Z,2.00
2024-04-24T02:48:27.722Z,2.00
2024-04-24T02:50:57.831Z,1.90
2024-04-24T02:53:27.907Z,1.90
2024-04-24T02:55:58.034Z,1.80
2024-04-24T02:58:30.788Z,1.80
2024-04-24T03:01:00.891Z,1.80
2024-04-24T03:03:31.036Z,1.80
2024-04-24T03:06:01.122Z,1.90
2024-04-24T03:08:31.202Z,1.90
2024-04-24T03:10:58.783Z,2.00
2024-04-24T03:13:31.541Z,2.00
2024-04-24T03:16:01.654Z,1.90
2024-04-24T03:18:31.770Z,2.00
2024-04-24T03:21:01.956Z,1.90
2024-04-24T03:23:32.040Z,2.00
2024-04-24T03:26:02.097Z,2.00
2024-04-24T03:28:34.803Z,2.10
2024-04-24T03:31:02.270Z,2.10
2024-04-24T03:33:32.403Z,2.10
2024-04-24T03:36:02.506Z,2.00
2024-04-24T03:38:32.635Z,2.00
2024-04-24T03:41:02.778Z,2.00
2024-04-24T03:43:35.499Z,2.00
2024-04-24T03:46:05.654Z,1.90
2024-04-24T03:48:37.421Z,2.00
2024-04-24T03:51:08.396Z,2.00
2024-04-24T03:53:38.464Z,2.00
2024-04-24T03:56:08.697Z,2.00
2024-04-24T03:58:38.821Z,2.00
2024-04-24T04:01:08.930Z,2.00
2024-04-24T04:03:39.393Z,2.00
2024-04-24T04:06:09.603Z,2.20
2024-04-24T04:08:39.702Z,2.20
2024-04-24T04:11:09.851Z,2.20
2024-04-24T04:13:42.707Z,2.30
2024-04-24T04:16:13.090Z,2.40
2024-04-24T04:18:43.299Z,2.40
2024-04-24T04:21:14.793Z,2.30
2024-04-24T04:23:44.921Z,2.30
2024-04-24T04:26:15.132Z,2.40
2024-04-24T04:28:48.024Z,2.40
2024-04-24T04:31:18.065Z,2.40
2024-04-24T04:33:48.258Z,2.50
2024-04-24T04:36:18.326Z,2.50
2024-04-24T04:38:48.413Z,2.60
2024-04-24T04:41:18.573Z,2.60
2024-04-24T04:43:51.309Z,2.70
2024-04-24T04:46:21.478Z,2.90
2024-04-24T04:48:53.340Z,3.00
2024-04-24T04:51:23.549Z,3.00
2024-04-24T04:53:54.578Z,3.10
2024-04-24T04:56:27.058Z,3.20
2024-04-24T04:58:59.877Z,3.30
2024-04-24T05:01:30.543Z,3.50
2024-04-24T05:04:00.680Z,3.70
2024-04-24T05:06:30.957Z,3.80
2024-04-24T05:09:01.157Z,4.00
2024-04-24T05:11:31.241Z,4.10
2024-04-24T05:14:04.004Z,4.30
2024-04-24T05:16:34.107Z,4.40
2024-04-24T05:19:04.440Z,4.60
2024-04-24T05:21:34.695Z,4.70
2024-04-24T05:24:04.804Z,4.70
2024-04-24T05:26:50.737Z,4.80
2024-04-24T05:29:23.685Z,5.00
2024-04-24T05:31:53.765Z,5.20
2024-04-24T05:34:24.751Z,5.40
2024-04-24T05:36:54.832Z,5.70
2024-04-24T05:39:24.930Z,5.90
2024-04-24T05:41:55.043Z,6.20
2024-04-24T05:44:29.250Z,6.50
2024-04-24T05:46:59.383Z,6.80
2024-04-24T05:49:29.456Z,7.10
2024-04-24T05:51:59.956Z,7.70
2024-04-24T05:54:30.051Z,8.60
2024-04-24T05:57:00.081Z,9.60
2024-04-24T05:59:32.949Z,10.30
2024-04-24T06:02:03.041Z,10.50
2024-04-24T06:04:33.152Z,10.70
2024-04-24T06:07:03.224Z,11.20
2024-04-24T06:09:33.255Z,11.40
2024-04-24T06:12:03.451Z,11.50
2024-04-24T06:14:36.308Z,11.50
2024-04-24T06:17:06.355Z,11.80
2024-04-24T06:19:36.412Z,12.10
2024-04-24T06:22:06.517Z,12.60
2024-04-24T06:24:36.643Z,12.80
2024-04-24T06:27:06.803Z,13.10
2024-04-24T06:29:36.876Z,13.20
2024-04-24T06:32:07.194Z,13.20
2024-04-24T06:34:37.300Z,13.10
2024-04-24T06:37:07.458Z,12.70
2024-04-24T06:39:37.519Z,12.60
2024-04-24T06:42:09.571Z,12.30
2024-04-24T06:44:42.389Z,12.10
2024-04-24T06:47:12.691Z,11.90
2024-04-24T06:49:42.740Z,11.70
2024-04-24T06:52:12.825Z,11.60
2024-04-24T06:54:42.876Z,11.60
2024-04-24T06:57:12.928Z,11.50
2024-04-24T06:59:46.108Z,11.00
2024-04-24T07:02:16.339Z,10.90
2024-04-24T07:04:46.430Z,10.90
2024-04-24T07:07:18.252Z,10.90
2024-04-24T07:09:50.248Z,11.00
2024-04-24T07:12:20.373Z,10.90
2024-04-24T07:14:53.060Z,10.80
2024-04-24T07:17:23.160Z,10.70
2024-04-24T07:19:53.312Z,10.70
2024-04-24T07:22:23.385Z,10.80
2024-04-24T07:24:53.439Z,10.80
2024-04-24T07:27:23.487Z,10.80
2024-04-24T07:29:56.151Z,10.70
2024-04-24T07:32:26.230Z,10.50
2024-04-24T07:34:56.668Z,10.40
2024-04-24T07:37:26.980Z,10.50
2024-04-24T07:39:57.398Z,10.60
2024-04-24T07:42:27.438Z,10.80
2024-04-24T07:45:00.324Z,11.00
2024-04-24T07:47:30.514Z,11.10
2024-04-24T07:50:00.695Z,11.30
2024-04-24T07:52:30.786Z,11.40
2024-04-24T07:55:00.829Z,11.40
2024-04-24T07:57:30.853Z,11.40
2024-04-24T08:00:00.910Z,11.60
2024-04-24T08:02:31.509Z,11.80
2024-04-24T08:05:01.670Z,11.80
2024-04-24T08:07:31.713Z,11.80
2024-04-24T08:10:01.761Z,11.90
2024-04-24T08:12:31.885Z,11.90
2024-04-24T08:15:04.775Z,12.00
2024-04-24T08:17:34.933Z,12.30
2024-04-24T08:20:05.088Z,12.40
2024-04-24T08:22:35.248Z,12.20
2024-04-24T08:25:05.337Z,11.90
2024-04-24T08:27:35.701Z,11.80
2024-04-24T08:30:09.338Z,11.70
2024-04-24T08:32:39.584Z,11.50
2024-04-24T08:35:10.143Z,11.50
2024-04-24T08:37:40.236Z,12.00
2024-04-24T08:40:11.020Z,12.20
2024-04-24T08:42:41.379Z,12.40
2024-04-24T08:45:19.766Z,12.40
2024-04-24T08:47:50.064Z,12.40
2024-04-24T08:50:20.274Z,12.50
2024-04-24T08:52:54.179Z,12.50
2024-04-24T08:55:25.342Z,12.60
2024-04-24T08:57:56.293Z,12.60
2024-04-24T09:00:30.715Z,12.60
2024-04-24T09:03:07.245Z,12.50
2024-04-24T09:05:39.173Z,13.00
2024-04-24T09:08:10.705Z,13.70
2024-04-24T09:10:41.806Z,14.40
2024-04-24T09:13:14.586Z,14.60
2024-04-24T09:15:49.864Z,14.90
2024-04-24T09:18:22.108Z,14.80
2024-04-24T09:20:53.763Z,14.20
2024-04-24T09:23:27.642Z,14.10
2024-04-24T09:25:59.557Z,13.80
2024-04-24T09:28:29.855Z,13.70
2024-04-24T09:31:06.475Z,13.70
2024-04-24T09:33:36.604Z,14.40
2024-04-24T09:36:07.251Z,14.90
2024-04-24T09:38:37.413Z,15.40
2024-04-24T09:41:07.724Z,15.80
2024-04-24T09:43:37.889Z,15.80
2024-04-24T09:46:10.828Z,15.60
2024-04-24T09:48:41.077Z,15.80
2024-04-24T09:51:11.899Z,16.20
2024-04-24T09:53:42.107Z,17.00
2024-04-24T09:56:19.585Z,17.20
2024-04-24T09:58:53.382Z,17.00
2024-04-24T10:01:26.683Z,15.80
2024-04-24T10:03:58.354Z,14.10
2024-04-24T10:06:29.701Z,13.30
2024-04-24T10:09:01.986Z,12.50
2024-04-24T10:11:37.521Z,12.70
2024-04-24T10:14:09.800Z,13.10
2024-04-24T10:16:43.041Z,13.30
2024-04-24T10:19:14.554Z,13.20
2024-04-24T10:21:44.739Z,12.60
2024-04-24T10:24:17.368Z,12.50
2024-04-24T10:26:48.217Z,12.50
2024-04-24T10:29:20.841Z,12.50
2024-04-24T10:31:58.312Z,12.20
2024-04-24T10:34:29.556Z,12.10
2024-04-24T10:37:00.408Z,12.00
2024-04-24T10:39:30.551Z,12.10
2024-04-24T10:42:01.009Z,12.50
2024-04-24T10:44:31.209Z,13.20
2024-04-24T10:47:04.589Z,13.60
2024-04-24T10:49:34.702Z,13.90
2024-04-24T10:52:05.039Z,14.10
2024-04-24T10:54:36.718Z,14.30
2024-04-24T10:57:10.885Z,14.10
2024-04-24T10:59:41.015Z,14.30
2024-04-24T11:02:15.278Z,14.50
2024-04-24T11:04:45.563Z,14.90
2024-04-24T11:07:28.269Z,15.00
2024-04-24T11:10:07.187Z,15.30
2024-04-24T11:12:40.932Z,14.60
2024-04-24T11:15:20.812Z,13.80
2024-04-24T11:17:57.259Z,13.40
2024-04-24T11:20:29.077Z,13.00
2024-04-24T11:22:59.398Z,12.60
2024-04-24T11:25:34.039Z,12.30
2024-04-24T11:28:06.452Z,12.10
2024-04-24T11:30:36.572Z,11.80
2024-04-24T11:33:09.388Z,11.60
2024-04-24T11:35:39.616Z,11.30
2024-04-24T11:38:09.760Z,11.20
2024-04-24T11:40:44.719Z,11.00
2024-04-24T11:43:14.834Z,11.00
2024-04-24T11:45:46.287Z,11.00
2024-04-24T11:48:19.272Z,11.00
2024-04-24T11:50:55.286Z,11.00
2024-04-24T11:53:25.388Z,10.90
2024-04-24T11:55:55.668Z,11.20
2024-04-24T11:58:27.393Z,12.20
2024-04-24T12:00:57.683Z,13.60
2024-04-24T12:03:30.516Z,14.80
2024-04-24T12:06:02.959Z,15.70
2024-04-24T12:08:33.230Z,15.90
2024-04-24T12:11:04.675Z,16.00
2024-04-24T12:13:35.227Z,16.00
2024-04-24T12:16:06.921Z,15.80
2024-04-24T12:18:39.644Z,15.60
2024-04-24T12:21:09.727Z,15.50
2024-04-24T12:23:40.747Z,15.60
2024-04-24T12:26:11.124Z,15.80
2024-04-24T12:28:41.167Z,15.90
2024-04-24T12:31:11.282Z,15.20
2024-04-24T12:33:44.223Z,14.00
2024-04-24T12:36:15.532Z,12.40
2024-04-24T12:38:45.564Z,11.80
2024-04-24T12:41:15.797Z,11.70
2024-04-24T12:43:45.910Z,12.20
2024-04-24T12:46:16.031Z,12.80
2024-04-24T12:48:56.022Z,12.80
2024-04-24T12:51:26.325Z,12.20
2024-04-24T12:53:56.701Z,12.20
2024-04-24T12:56:28.618Z,12.70
2024-04-24T12:58:58.794Z,13.40
2024-04-24T13:01:28.898Z,13.50
2024-04-24T13:04:02.319Z,13.50
2024-04-24T13:06:34.533Z,13.00
2024-04-24T13:09:04.608Z,12.10
2024-04-24T13:11:34.867Z,11.50
2024-04-24T13:14:05.371Z,11.30
2024-04-24T13:16:35.424Z,11.30
2024-04-24T13:19:08.269Z,11.00
2024-04-24T13:21:38.401Z,10.60
2024-04-24T13:24:09.019Z,10.30
2024-04-24T13:26:39.158Z,10.10
2024-04-24T13:29:09.248Z,10.00
2024-04-24T13:31:39.334Z,9.80
2024-04-24T13:34:12.019Z,9.60
2024-04-24T13:36:42.040Z,9.50
2024-04-24T13:39:12.136Z,9.40
2024-04-24T13:41:42.569Z,9.30
2024-04-24T13:44:15.859Z,9.20
2024-04-24T13:46:46.930Z,9.20
2024-04-24T13:49:19.710Z,9.20
2024-04-24T13:51:49.845Z,9.30
2024-04-24T13:54:19.916Z,9.30
2024-04-24T13:56:51.309Z,9.40
2024-04-24T13:59:21.506Z,9.30
2024-04-24T14:01:52.098Z,9.40
2024-04-24T14:04:24.987Z,9.40
2024-04-24T14:06:55.129Z,9.50
2024-04-24T14:09:25.217Z,9.60
2024-04-24T14:11:55.365Z,9.50
2024-04-24T14:14:25.526Z,9.20
2024-04-24T14:16:55.635Z,8.90
2024-04-24T14:19:28.418Z,8.80
2024-04-24T14:21:58.503Z,8.90
2024-04-24T14:24:28.762Z,8.90
2024-04-24T14:27:01.693Z,9.00
2024-04-24T14:29:31.792Z,9.20
2024-04-24T14:32:01.989Z,9.30
2024-04-24T14:34:34.982Z,9.50
2024-04-24T14:37:06.145Z,9.80
2024-04-24T14:39:37.575Z,10.20
2024-04-24T14:42:08.401Z,11.00
2024-04-24T14:44:38.482Z,12.30
2024-04-24T14:47:08.617Z,13.40
2024-04-24T14:49:41.509Z,14.10
2024-04-24T14:52:11.737Z,15.00
2024-04-24T14:54:41.770Z,15.50
2024-04-24T14:57:11.900Z,15.70
2024-04-24T14:59:41.953Z,15.90
2024-04-24T15:02:12.082Z,16.00
2024-04-24T15:04:44.828Z,15.90
2024-04-24T15:07:14.953Z,15.80
2024-04-24T15:09:45.647Z,15.40
2024-04-24T15:12:15.823Z,14.80
2024-04-24T15:14:45.980Z,13.40
2024-04-24T15:17:16.178Z,12.50
2024-04-24T15:19:49.016Z,12.00
2024-04-24T15:22:19.086Z,11.70
2024-04-24T15:24:49.121Z,11.40
2024-04-24T15:27:19.273Z,11.00
2024-04-24T15:29:49.400Z,10.70
2024-04-24T15:32:19.570Z,10.50
2024-04-24T15:34:52.313Z,10.60
2024-04-24T15:37:22.346Z,10.80
2024-04-24T15:39:52.774Z,11.70
2024-04-24T15:42:22.831Z,11.70
2024-04-24T15:44:52.944Z,11.70
2024-04-24T15:47:23.276Z,11.70
2024-04-24T15:49:56.039Z,11.40
2024-04-24T15:52:26.108Z,11.00
2024-04-24T15:54:56.124Z,10.60
2024-04-24T15:57:26.200Z,10.10
2024-04-24T15:59:56.332Z,9.90
2024-04-24T16:02:26.503Z,9.60
2024-04-24T16:04:59.425Z,9.30
2024-04-24T16:07:29.537Z,9.10
2024-04-24T16:10:00.576Z,8.90
2024-04-24T16:12:30.720Z,8.90
2024-04-24T16:15:00.747Z,8.80
2024-04-24T16:17:30.973Z,8.80
2024-04-24T16:20:03.785Z,8.90
2024-04-24T16:22:33.898Z,8.90
2024-04-24T16:25:03.931Z,9.00
2024-04-24T16:27:34.032Z,9.00
2024-04-24T16:30:04.070Z,9.00
2024-04-24T16:32:36.244Z,9.00
2024-04-24T16:35:09.344Z,9.10
2024-04-24T16:37:39.629Z,8.80
2024-04-24T16:40:11.018Z,8.30
2024-04-24T16:42:41.107Z,7.90
2024-04-24T16:45:11.781Z,7.60
2024-04-24T16:47:41.913Z,7.30
2024-04-24T16:50:15.824Z,7.10
2024-04-24T16:52:45.946Z,6.90
2024-04-24T16:55:16.072Z,6.70
2024-04-24T16:57:46.179Z,6.60
2024-04-24T17:00:16.725Z,6.60
2024-04-24T17:02:46.922Z,6.60
2024-04-24T17:05:22.040Z,6.60
2024-04-24T17:07:52.625Z,6.50
2024-04-24T17:10:23.289Z,6.50
2024-04-24T17:12:53.381Z,6.40
2024-04-24T17:15:23.514Z,6.30
2024-04-24T17:17:53.713Z,6.30
2024-04-24T17:20:26.566Z,6.30
2024-04-24T17:22:56.694Z,6.30
2024-04-24T17:25:27.196Z,6.30
2024-04-24T17:27:57.286Z,6.30
2024-04-24T17:30:27.425Z,6.30
2024-04-24T17:32:57.570Z,6.30
2024-04-24T17:35:31.930Z,6.40
2024-04-24T17:38:04.755Z,6.40
2024-04-24T17:40:36.074Z,6.30
2024-04-24T17:43:06.166Z,6.20
2024-04-24T17:45:36.734Z,6.00
2024-04-24T17:48:09.110Z,5.80
2024-04-24T17:50:41.951Z,5.60
2024-04-24T17:53:12.032Z,5.40
2024-04-24T17:55:45.036Z,5.30
2024-04-24T17:58:15.160Z,5.10
2024-04-24T18:00:45.527Z,5.00
2024-04-24T18:03:15.708Z,4.90
2024-04-24T18:05:49.221Z,4.90
2024-04-24T18:08:19.572Z,4.80
2024-04-24T18:10:49.692Z,4.70
2024-04-24T18:13:19.769Z,4.80
2024-04-24T18:15:50.497Z,4.70
2024-04-24T18:18:21.200Z,4.70
2024-04-24T18:20:54.022Z,4.70
2024-04-24T18:23:24.145Z,4.60
2024-04-24T18:25:54.663Z,4.60
2024-04-24T18:28:24.742Z,4.80
2024-04-24T18:30:54.851Z,4.80
2024-04-24T18:33:28.335Z,4.80
2024-04-24T18:36:01.362Z,4.70
2024-04-24T18:38:32.094Z,4.60
2024-04-24T18:41:02.428Z,4.50
2024-04-24T18:43:32.536Z,4.50
2024-04-24T18:46:02.782Z,4.40
2024-04-24T18:48:33.029Z,4.30
2024-04-24T18:51:05.915Z,4.40
2024-04-24T18:53:36.099Z,4.40
2024-04-24T18:56:07.926Z,4.40
2024-04-24T18:58:38.042Z,4.30
2024-04-24T19:01:08.473Z,4.20
2024-04-24T19:03:38.657Z,4.20
2024-04-24T19:06:11.491Z,4.10
2024-04-24T19:08:41.551Z,4.20
2024-04-24T19:11:11.917Z,4.20
2024-04-24T19:13:42.011Z,4.10
2024-04-24T19:16:16.071Z,4.10
2024-04-24T19:18:46.212Z,3.90
2024-04-24T19:21:19.072Z,3.80
2024-04-24T19:23:52.775Z,3.70
2024-04-24T19:26:23.316Z,3.70
2024-04-24T19:28:53.541Z,3.60
2024-04-24T19:31:31.331Z,3.50
2024-04-24T19:34:04.393Z,3.40
2024-04-24T19:36:37.184Z,3.30
2024-04-24T19:39:07.303Z,3.20
2024-04-24T19:41:37.421Z,3.20
2024-04-24T19:44:08.669Z,3.00
2024-04-24T19:46:38.948Z,2.90
2024-04-24T19:49:09.052Z,2.80
2024-04-24T19:51:42.751Z,2.80
2024-04-24T19:54:13.745Z,2.70
2024-04-24T19:56:44.967Z,2.70
2024-04-24T19:59:15.132Z,2.60
2024-04-24T20:01:48.055Z,2.50
2024-04-24T20:04:18.790Z,2.40
2024-04-24T20:06:51.524Z,2.20
2024-04-24T20:09:21.708Z,2.10
2024-04-24T20:11:51.964Z,2.10
2024-04-24T20:14:22.150Z,1.90
2024-04-24T20:16:52.388Z,1.90
2024-04-24T20:19:22.862Z,1.80
2024-04-24T20:21:56.442Z,1.80
2024-04-24T20:24:26.823Z,1.80
2024-04-24T20:26:58.880Z,1.70
2024-04-24T20:29:34.512Z,1.60
2024-04-24T20:32:06.479Z,1.60
2024-04-24T20:34:36.929Z,1.50
2024-04-24T20:37:09.979Z,1.40
2024-04-24T20:39:43.563Z,1.40
2024-04-24T20:42:16.947Z,1.30
2024-04-24T20:44:47.158Z,1.30
2024-04-24T20:47:17.663Z,1.20
2024-04-24T20:49:48.038Z,1.20
2024-04-24T20:52:21.198Z,1.10
2024-04-24T20:54:51.548Z,1.10
2024-04-24T20:57:21.779Z,1.00
2024-04-24T20:59:56.324Z,1.00
2024-04-24T21:02:27.981Z,1.00
2024-04-24T21:04:58.500Z,0.80
2024-04-24T21:07:31.441Z,0.70
2024-04-24T21:10:01.947Z,0.60
2024-04-24T21:12:32.153Z,0.50
2024-04-24T21:15:04.428Z,0.50
2024-04-24T21:17:34.765Z,0.50
2024-04-24T21:20:05.316Z,0.50
2024-04-24T21:22:41.893Z,0.40
2024-04-24T21:25:12.161Z,0.40
2024-04-24T21:27:42.388Z,0.40
2024-04-24T21:30:13.875Z,0.30
2024-04-24T21:32:44.249Z,0.20
2024-04-24T21:35:14.532Z,0.20
2024-04-24T21:37:47.533Z,0.20
2024-04-24T21:40:18.002Z,0.30
2024-04-24T21:42:48.411Z,0.50
2024-04-24T21:45:18.901Z,0.50
2024-04-24T21:47:47.106Z,0.50
2024-04-24T21:50:17.593Z,0.50
2024-04-24T21:52:50.569Z,0.60
2024-04-24T21:55:20.824Z,0.70
2024-04-24T21:57:51.329Z,0.70
2024-04-24T22:00:21.608Z,0.80
2024-04-24T22:02:51.842Z,0.80
2024-04-24T22:05:22.279Z,0.80
2024-04-24T22:07:55.199Z,0.90
2024-04-24T22:10:25.480Z,1.00
2024-04-24T22:12:53.016Z,1.00
2024-04-24T22:15:23.439Z,0.90
2024-04-24T22:17:54.049Z,1.00
2024-04-24T22:20:24.210Z,1.00
2024-04-24T22:22:57.507Z,1.00
2024-04-24T22:25:27.799Z,1.00
2024-04-24T22:27:57.922Z,1.00
2024-04-24T22:30:29.799Z,1.00
2024-04-24T22:33:02.989Z,1.10
2024-04-24T22:35:33.315Z,1.10
2024-04-24T22:38:06.293Z,1.00
2024-04-24T22:40:36.633Z,1.10
2024-04-24T22:43:07.040Z,1.00
2024-04-24T22:45:37.314Z,1.10
2024-04-24T22:48:08.262Z,1.20
2024-04-24T22:50:38.741Z,1.20
2024-04-24T22:53:14.038Z,1.20
2024-04-24T22:55:44.575Z,1.30
2024-04-24T22:58:14.768Z,1.30
2024-04-24T23:00:45.391Z,1.40
2024-04-24T23:03:15.772Z,1.50
2024-04-24T23:05:46.243Z,1.50
2024-04-24T23:08:24.759Z,1.50
2024-04-24T23:10:54.968Z,1.50
2024-04-24T23:13:25.220Z,1.40
2024-04-24T23:15:55.960Z,1.40
2024-04-24T23:18:27.839Z,1.40
2024-04-24T23:21:01.041Z,1.30
2024-04-24T23:23:34.014Z,1.20
2024-04-24T23:26:01.794Z,1.10
2024-04-24T23:28:32.218Z,1.00
2024-04-24T23:31:02.634Z,0.80
2024-04-24T23:33:32.872Z,0.70
2024-04-24T23:36:06.781Z,0.60
2024-04-24T23:38:40.199Z,0.50
2024-04-24T23:41:16.064Z,0.40
2024-04-24T23:43:47.872Z,0.30
2024-04-24T23:46:21.907Z,0.30
2024-04-24T23:48:53.468Z,0.20
2024-04-24T23:51:23.747Z,0.20
2024-04-24T23:53:57.278Z,0.00
2024-04-24T23:56:27.994Z,-0.10
2024-04-24T23:58:58.681Z,-0.10
